Terminal Aerodrome Forecast
Issued by NWS Louisville, KY

Home | Current Version | Previous Version | Text Only | Print | Product List | Glossary On
Versions: 1 2 3 4 5 6 7 8 9 10 11 12 13 14 15 16 17 18 19 20 21 22 23 24 25 26 27
000
FTUS43 KLMK 142255 AAB
TAFSDF
TAF AMD
KSDF 142255Z 1423/1524 33004KT P6SM SCT007 BKN011
      TEMPO 1423/1502 5SM -DZ BR BKN006
     FM150200 VRB03KT 4SM -DZ BR OVC004
      TEMPO 1510/1514 1/2SM FG OVC003
     FM151700 04005KT 3SM -DZ BR OVC006
     FM152100 05005KT 2SM BR VCSH OVC004=

USA.gov is the U.S. government's official web portal to all federal, state and local government web resources and services.